Halle Kroellwitz, Germany

1:58 PM CEST on July 29, 2016 (GMT +0200)
Trothaer Straße | | Change Station

Elev 278 ft 51.51 °N, 11.96 °E | Updated 4 minutes ago

Scattered Clouds
Scattered Clouds
77.4 °F
Feels Like 79 °F
N
1.2
Wind Variable Wind from ENE
Gusts 3.1 mph

Today
High -- | Low -- °F
--% Chance of Precip.
Yesterday
High -- | Low -- °F
Precip. -- in
Pressure 29.89 in
Visibility 6.2 miles
Clouds Scattered Clouds 4000 ft
Heat Index 79 °F
Dew Point 64 °F
Humidity 64%
Rainfall in
Snow Depth Not available.
5:31 AM 9:04 PM
Waning Crescent, 22% visible
METAR EDDP 291150Z 25013G23KT 220V280 9999 SCT040 25/14 Q1012 NOSIG
Pressure 29.89 in
Visibility 6.2 miles
Clouds Scattered Clouds 4000 ft
Heat Index 79 °F
Dew Point 64 °F
Humidity 64%
Rainfall in
Snow Depth Not available.
5:31 AM 9:04 PM
Waning Crescent, 22% visible
METAR EDDP 291150Z 25013G23KT 220V280 9999 SCT040 25/14 Q1012 NOSIG

10-Day Weather Forecast

×

Almanac

Astronomy

Jul. 29, 2016 Rise Set
Actual Time
Civil Twilight
Nautical Twilight
Astronomical Twilight
Moon
Length of Visible Light
Length of Day
Tomorrow will be .
, % of the Moon is Illuminated

Today's Extremes

Country Highs Country Lows

Community

WunderPhotos

Upload Photos

1,928,325 photos uploaded!

WunderBlog® & News

Nearby

Air Quality

  Air Quality AQ Index Pollutant
Not available.

Snow Depth

Station Depth Elevation

Earthquake Activity

City Distance Mag. Time & Date
Minimum magnitude displayed is 2.5.

Coastal Water Temperatures

Place Temperature

Stations

Nearby Weather Stations

Station Location Temp. Windchill Dew Point Humidity Wind Precip. Elev Updated Type